Time;durP1;ratioP1;P1;durP2;ratioP2;P2;SDS_P1;SDS_P2;PMS_P1;PMS_P2;Temp;Humidity;BMP_temperature;BMP_pressure;BME280_temperature;BME280_humidity;BME280_pressure;Samples;Min_cycle;Max_cycle;Signal;HPM_P1;HPM_P2
2023/01/17 00:01:59;;;;;;;1999.90;999.90;;;;;;;3.17;100.00;92595.81;5067388;28;20193;-64
2023/01/17 00:09:58;;;;;;;1999.90;999.90;;;;;;;3.21;100.00;92593.06;5084696;28;20199;-64
2023/01/17 00:12:26;;;;;;;1999.90;999.90;;;;;;;3.18;100.00;92589.25;5066603;28;20185;-64
2023/01/17 00:14:53;;;;;;;1999.90;999.90;;;;;;;3.16;100.00;92599.72;5066947;28;20165;-64
2023/01/17 00:17:20;;;;;;;1999.90;999.90;;;;;;;3.12;100.00;92599.03;5066710;28;20207;-63
2023/01/17 01:34:20;;;;;;;1999.90;999.90;;;;;;;2.74;100.00;92665.41;5087066;28;20188;-64
2023/01/17 01:36:46;;;;;;;1999.90;999.90;;;;;;;2.67;100.00;92675.63;5069175;28;20169;-64
2023/01/17 01:39:11;;;;;;;1999.90;999.90;;;;;;;2.70;100.00;92680.91;5069241;28;20170;-64
2023/01/17 01:41:36;;;;;;;1999.90;999.90;;;;;;;2.71;100.00;92679.75;5069687;28;20244;-66
2023/01/17 01:44:02;;;;;;;1999.90;999.90;;;;;;;2.69;100.00;92678.63;5069490;28;20201;-65
2023/01/17 01:46:35;;;;;;;1999.90;999.90;;;;;;;2.68;100.00;92664.41;5069461;28;20173;-66
2023/01/17 01:49:16;;;;;;;1999.90;999.90;;;;;;;2.59;100.00;92680.38;5068875;28;20217;-66
2023/01/17 01:51:48;;;;;;;1999.90;999.90;;;;;;;2.60;100.00;92684.63;5069042;28;20204;-66
2023/01/17 01:54:32;;;;;;;1999.90;999.90;;;;;;;2.55;100.00;92682.41;5069384;28;20165;-66
2023/01/17 01:57:01;;;;;;;1999.90;999.90;;;;;;;2.57;100.00;92679.31;5069070;28;20180;-66
2023/01/17 01:59:29;;;;;;;1999.90;999.90;;;;;;;2.50;100.00;92685.59;5068805;28;20165;-65
2023/01/17 02:01:58;;;;;;;1999.90;999.90;;;;;;;2.46;100.00;92679.53;5068098;28;20188;-66
2023/01/17 02:04:27;;;;;;;1999.90;999.90;;;;;;;2.39;100.00;92681.63;5068648;28;20165;-64
2023/01/17 02:06:59;;;;;;;1999.90;999.90;;;;;;;2.38;100.00;92686.28;5068696;28;20405;-65
2023/01/17 02:09:25;;;;;;;1999.90;999.90;;;;;;;2.34;100.00;92682.88;5069096;28;20169;-65
2023/01/17 02:11:51;;;;;;;1999.90;999.90;;;;;;;2.33;100.00;92689.44;5069095;28;20204;-65
2023/01/17 02:14:19;;;;;;;1999.90;999.90;;;;;;;2.28;100.00;92689.94;5068778;28;20188;-65
2023/01/17 02:17:10;;;;;;;1999.90;999.90;;;;;;;2.24;100.00;92678.50;5068672;28;20250;-64
2023/01/17 02:19:57;;;;;;;1999.90;999.90;;;;;;;2.25;100.00;92687.31;5068687;28;20211;-65
2023/01/17 02:22:41;;;;;;;1999.90;999.90;;;;;;;2.23;100.00;92690.41;5069155;28;20252;-64
2023/01/17 02:25:37;;;;;;;1999.90;999.90;;;;;;;2.21;100.00;92689.31;5068772;28;20165;-65
2023/01/17 02:28:25;;;;;;;1999.90;999.90;;;;;;;2.16;100.00;92690.59;5068510;28;20239;-64
2023/01/17 02:30:56;;;;;;;1999.90;999.90;;;;;;;2.11;100.00;92696.44;5068782;28;20165;-65
2023/01/17 02:33:45;;;;;;;1999.90;999.90;;;;;;;2.08;100.00;92691.88;5068320;28;20161;-64
2023/01/17 02:36:34;;;;;;;1999.90;999.90;;;;;;;2.08;100.00;92688.47;5068255;28;20207;-64
2023/01/17 02:39:07;;;;;;;1999.90;999.90;;;;;;;2.02;100.00;92685.50;5068394;28;20161;-64
2023/01/17 02:41:41;;;;;;;1999.90;999.90;;;;;;;1.99;100.00;92680.16;5067999;28;20176;-65
2023/01/17 02:44:08;;;;;;;1999.90;999.90;;;;;;;2.01;100.00;92683.97;5068229;28;20168;-65
2023/01/17 02:46:54;;;;;;;1999.90;999.90;;;;;;;1.96;100.00;92679.06;5067863;28;20165;-65
2023/01/17 02:49:23;;;;;;;1999.90;999.90;;;;;;;1.95;100.00;92680.25;5067808;28;20216;-64
2023/01/17 02:52:23;;;;;;;1999.90;999.90;;;;;;;1.91;100.00;92678.81;5068221;28;20193;-64
2023/01/17 02:55:01;;;;;;;1999.90;999.90;;;;;;;1.90;100.00;92683.41;5068519;28;20173;-65
2023/01/17 02:57:26;;;;;;;1999.90;999.90;;;;;;;1.87;100.00;92678.88;5067906;28;20437;-64
2023/01/17 02:59:57;;;;;;;1999.90;999.90;;;;;;;1.81;100.00;92685.91;5068185;28;20206;-64
2023/01/17 03:02:39;;;;;;;1999.90;999.90;;;;;;;1.74;100.00;92685.28;5067336;28;20184;-65
2023/01/17 03:05:11;;;;;;;1999.90;999.90;;;;;;;1.67;100.00;92683.50;5067860;28;20193;-64
2023/01/17 03:07:38;;;;;;;1999.90;999.90;;;;;;;1.63;100.00;92693.56;5067954;28;20165;-64
2023/01/17 03:10:05;;;;;;;1999.90;999.90;;;;;;;1.60;100.00;92685.56;5067588;28;20188;-64
2023/01/17 03:12:34;;;;;;;1999.90;999.90;;;;;;;1.56;100.00;92691.00;5067655;28;20246;-64
2023/01/17 03:14:59;;;;;;;1999.90;999.90;;;;;;;1.54;100.00;92692.59;5067272;28;20471;-64
2023/01/17 03:17:30;;;;;;;1999.90;999.90;;;;;;;1.50;100.00;92694.59;5067796;28;20161;-64
2023/01/17 03:19:56;;;;;;;1999.90;999.90;;;;;;;1.46;100.00;92688.53;5067593;28;20188;-63
2023/01/17 03:22:21;;;;;;;1999.90;999.90;;;;;;;1.42;100.00;92696.63;5067339;28;20236;-64
2023/01/17 03:24:46;;;;;;;1999.90;999.90;;;;;;;1.43;100.00;92698.19;5067456;28;20163;-64
2023/01/17 03:27:12;;;;;;;1999.90;999.90;;;;;;;1.40;100.00;92698.22;5067130;28;20161;-64
2023/01/17 03:29:37;;;;;;;1999.90;999.90;;;;;;;1.40;100.00;92693.63;5067173;28;20205;-64
2023/01/17 03:32:03;;;;;;;1999.90;999.90;;;;;;;1.37;100.00;92699.03;5067673;28;20189;-65
2023/01/17 03:34:28;;;;;;;1999.90;999.90;;;;;;;1.36;100.00;92698.28;5067878;28;20165;-65
2023/01/17 03:36:54;;;;;;;1999.90;999.90;;;;;;;1.35;100.00;92696.00;5067050;28;20168;-65
2023/01/17 03:39:19;;;;;;;1999.90;999.90;;;;;;;1.33;100.00;92699.13;5067107;28;20343;-65
2023/01/17 03:41:44;;;;;;;1999.90;999.90;;;;;;;1.30;100.00;92699.94;5067032;28;20164;-64
2023/01/17 03:44:09;;;;;;;1999.90;999.90;;;;;;;1.30;100.00;92694.56;5067541;28;20222;-65
2023/01/17 03:46:35;;;;;;;1999.90;999.90;;;;;;;1.27;100.00;92690.00;5067039;28;20172;-64
2023/01/17 03:49:01;;;;;;;1999.90;999.90;;;;;;;1.32;100.00;92697.59;5067051;28;20219;-64
2023/01/17 03:51:26;;;;;;;1999.90;999.90;;;;;;;1.33;100.00;92693.75;5066758;28;20241;-64
2023/01/17 03:53:52;;;;;;;1999.90;999.90;;;;;;;1.28;100.00;92699.59;5066905;28;20188;-65
2023/01/17 03:56:17;;;;;;;1999.90;999.90;;;;;;;1.29;100.00;92697.66;5066872;28;20161;-64
2023/01/17 03:58:43;;;;;;;1999.90;999.90;;;;;;;1.25;100.00;92697.72;5066993;28;20214;-64
2023/01/17 04:01:08;;;;;;;1999.90;999.90;;;;;;;1.23;100.00;92705.44;5066849;28;20153;-65
2023/01/17 04:03:33;;;;;;;1999.90;999.90;;;;;;;1.21;100.00;92697.03;5067365;28;20188;-64
2023/01/17 04:05:59;;;;;;;1999.90;999.90;;;;;;;1.27;100.00;92700.00;5067147;28;20217;-66
2023/01/17 04:08:24;;;;;;;1999.90;999.90;;;;;;;1.21;100.00;92699.72;5067066;28;20190;-65
2023/01/17 04:10:50;;;;;;;1999.90;999.90;;;;;;;1.16;100.00;92694.78;5067341;28;20172;-64
2023/01/17 04:13:18;;;;;;;1999.90;999.90;;;;;;;1.12;100.00;92696.78;5067150;28;20194;-66
2023/01/17 04:15:49;;;;;;;1999.90;999.90;;;;;;;1.09;100.00;92694.91;5066784;28;20179;-65
2023/01/17 04:18:19;;;;;;;1999.90;999.90;;;;;;;1.05;100.00;92699.59;5066747;28;20165;-66
2023/01/17 04:20:45;;;;;;;1999.90;999.90;;;;;;;1.06;100.00;92695.00;5066716;28;20184;-65
2023/01/17 04:23:10;;;;;;;1999.90;999.90;;;;;;;1.05;100.00;92690.78;5066690;28;20502;-66
2023/01/17 04:25:36;;;;;;;1999.90;999.90;;;;;;;1.03;100.00;92699.25;5068832;28;20165;-65
2023/01/17 04:28:04;;;;;;;1999.90;999.90;;;;;;;0.98;100.00;92699.72;5070533;28;20183;-65
2023/01/17 04:30:30;;;;;;;1999.90;999.90;;;;;;;0.95;100.00;92703.19;5070969;28;20160;-66
2023/01/17 04:32:56;;;;;;;1999.90;999.90;;;;;;;0.95;100.00;92695.16;5070821;28;20195;-66
2023/01/17 04:35:22;;;;;;;1999.90;999.90;;;;;;;0.93;100.00;92700.19;5070655;28;20190;-67
2023/01/17 04:37:47;;;;;;;1999.90;999.90;;;;;;;0.91;100.00;92688.34;5070486;28;20164;-66
2023/01/17 04:40:13;;;;;;;1999.90;999.90;;;;;;;0.87;100.00;92693.75;5070551;28;20168;-66
2023/01/17 04:42:39;;;;;;;1999.90;999.90;;;;;;;0.83;100.00;92693.03;5070638;28;20247;-66
2023/01/17 04:45:05;;;;;;;1999.90;999.90;;;;;;;0.81;100.00;92695.41;5069928;28;20174;-66
2023/01/17 04:47:32;;;;;;;1999.90;999.90;;;;;;;0.82;100.00;92693.44;5070180;28;20179;-65
2023/01/17 04:49:58;;;;;;;1999.90;999.90;;;;;;;0.78;100.00;92684.69;5069955;28;20208;-65
2023/01/17 04:52:24;;;;;;;1999.90;999.90;;;;;;;0.79;100.00;92686.97;5070371;28;20270;-66
2023/01/17 04:54:49;;;;;;;1999.90;999.90;;;;;;;0.77;100.00;92689.31;5070088;28;20164;-66
2023/01/17 04:57:16;;;;;;;1999.90;999.90;;;;;;;0.76;100.00;92687.03;5070147;28;20168;-65
2023/01/17 04:59:42;;;;;;;1999.90;999.90;;;;;;;0.73;100.00;92683.22;5070099;28;20265;-64
2023/01/17 05:02:08;;;;;;;1999.90;999.90;;;;;;;0.69;100.00;92690.56;5070390;28;20183;-64
2023/01/17 05:04:34;;;;;;;1999.90;999.90;;;;;;;0.63;100.00;92684.16;5070151;28;20167;-64
2023/01/17 05:06:59;;;;;;;1999.90;999.90;;;;;;;0.56;100.00;92689.66;5070464;28;20159;-63
2023/01/17 05:09:24;;;;;;;1999.90;999.90;;;;;;;0.48;100.00;92693.59;5070355;28;20186;-65
2023/01/17 05:11:50;;;;;;;1999.90;999.90;;;;;;;0.45;100.00;92693.63;5069670;28;20198;-64
2023/01/17 05:14:15;;;;;;;1999.90;999.90;;;;;;;0.41;100.00;92693.72;5070268;28;20170;-64
2023/01/17 05:16:41;;;;;;;1999.90;999.90;;;;;;;0.40;100.00;92692.16;5069798;28;20198;-65
2023/01/17 05:19:06;;;;;;;1999.90;999.90;;;;;;;0.38;100.00;92699.88;5069434;28;20191;-66
2023/01/17 05:21:31;;;;;;;1999.90;999.90;;;;;;;0.37;100.00;92703.72;5069569;28;20247;-66
2023/01/17 05:23:57;;;;;;;1999.90;999.90;;;;;;;0.39;100.00;92701.38;5069222;28;20163;-65
2023/01/17 05:26:22;;;;;;;1999.90;999.90;;;;;;;0.46;100.00;92703.97;5069918;28;20164;-65
2023/01/17 05:28:48;;;;;;;1999.90;999.90;;;;;;;0.49;100.00;92700.47;5069812;28;20192;-65
2023/01/17 05:31:14;;;;;;;1999.90;999.90;;;;;;;0.49;100.00;92707.75;5069235;28;20194;-64
2023/01/17 05:33:39;;;;;;;1999.90;999.90;;;;;;;0.51;100.00;92708.88;5069349;28;20165;-64
2023/01/17 05:36:05;;;;;;;1999.90;999.90;;;;;;;0.55;100.00;92714.97;5069101;28;20188;-65
2023/01/17 05:38:30;;;;;;;1999.90;999.90;;;;;;;0.59;100.00;92715.69;5069025;28;20178;-64
2023/01/17 05:40:59;;;;;;;1999.90;999.90;;;;;;;0.61;100.00;92723.34;5069674;28;20164;-63
2023/01/17 05:43:24;;;;;;;1999.90;999.90;;;;;;;0.64;100.00;92728.63;5069031;28;20163;-63
2023/01/17 05:45:49;;;;;;;1999.90;999.90;;;;;;;0.65;100.00;92724.78;5069145;28;20179;-64
2023/01/17 05:48:15;;;;;;;1999.90;999.90;;;;;;;0.64;100.00;92717.13;5068735;28;20241;-64
2023/01/17 05:50:40;;;;;;;1999.90;999.90;;;;;;;0.72;100.00;92724.69;5069236;28;20436;-63
2023/01/17 05:53:08;;;;;;;1999.90;999.90;;;;;;;0.85;100.00;92714.91;5068913;28;20193;-64
2023/01/17 05:55:35;;;;;;;1999.90;999.90;;;;;;;0.82;100.00;92715.69;5068851;28;20217;-65
2023/01/17 05:58:00;;;;;;;1999.90;999.90;;;;;;;0.76;100.00;92736.13;5068761;28;20158;-65
2023/01/17 06:00:26;;;;;;;1999.90;999.90;;;;;;;0.77;100.00;92732.28;5069096;28;20159;-64
2023/01/17 06:02:53;;;;;;;1999.90;999.90;;;;;;;0.81;100.00;92726.84;5069162;28;20167;-63
2023/01/17 06:05:20;;;;;;;1999.90;999.90;;;;;;;0.79;100.00;92732.63;5068644;28;20216;-64
2023/01/17 06:07:46;;;;;;;1999.90;999.90;;;;;;;0.77;100.00;92729.59;5069083;28;20243;-63
2023/01/17 06:10:13;;;;;;;1999.90;999.90;;;;;;;0.74;100.00;92733.09;5068702;28;20164;-65
2023/01/17 06:12:40;;;;;;;1999.90;999.90;;;;;;;0.73;100.00;92722.75;5068375;28;20191;-64
2023/01/17 06:15:06;;;;;;;1999.90;999.90;;;;;;;0.75;100.00;92723.09;5068462;28;20191;-64
2023/01/17 06:17:32;;;;;;;1999.90;999.90;;;;;;;0.74;100.00;92721.59;5068496;28;20204;-63
2023/01/17 06:19:57;;;;;;;1999.90;999.90;;;;;;;0.70;100.00;92732.38;5068097;28;20187;-64
2023/01/17 06:22:23;;;;;;;1999.90;999.90;;;;;;;0.68;100.00;92725.88;5068707;28;20162;-64
2023/01/17 06:24:48;;;;;;;1999.90;999.90;;;;;;;0.66;100.00;92723.63;5068791;28;20192;-63
2023/01/17 06:27:14;;;;;;;1999.90;999.90;;;;;;;0.62;100.00;92716.78;5068058;28;20209;-64
2023/01/17 06:29:39;;;;;;;1999.90;999.90;;;;;;;0.57;100.00;92719.91;5068054;28;20253;-63
2023/01/17 06:32:04;;;;;;;1999.90;999.90;;;;;;;0.52;100.00;92710.41;5068146;28;20203;-64
2023/01/17 06:34:30;;;;;;;1999.90;999.90;;;;;;;0.49;100.00;92719.28;5068473;28;20163;-62
2023/01/17 06:36:55;;;;;;;1999.90;999.90;;;;;;;0.49;100.00;92705.84;5068493;28;20161;-63
2023/01/17 06:39:21;;;;;;;1999.90;999.90;;;;;;;0.43;100.00;92707.47;5068428;28;20163;-63
2023/01/17 06:41:46;;;;;;;1999.90;999.90;;;;;;;0.43;100.00;92699.41;5067842;28;20200;-63
2023/01/17 06:44:11;;;;;;;1999.90;999.90;;;;;;;0.45;100.00;92705.16;5067850;28;20168;-63
2023/01/17 06:46:37;;;;;;;1999.90;999.90;;;;;;;0.42;100.00;92699.81;5068322;28;20172;-63
2023/01/17 06:49:02;;;;;;;1999.90;999.90;;;;;;;0.44;100.00;92695.59;5067189;28;20214;-61
2023/01/17 06:51:28;;;;;;;1999.90;999.90;;;;;;;0.43;100.00;92702.09;5067945;28;20194;-64
2023/01/17 06:53:53;;;;;;;1999.90;999.90;;;;;;;0.39;100.00;92701.38;5068207;28;20169;-63
2023/01/17 06:56:19;;;;;;;1999.90;999.90;;;;;;;0.41;100.00;92701.75;5067801;28;20164;-64
2023/01/17 06:58:51;;;;;;;1999.90;999.90;;;;;;;0.42;100.00;92695.22;5068003;28;20349;-63
2023/01/17 07:01:17;;;;;;;1999.90;999.90;;;;;;;0.38;100.00;92694.50;5067742;28;20162;-64
2023/01/17 07:03:43;;;;;;;1999.90;999.90;;;;;;;0.34;100.00;92699.16;5067703;28;20160;-67
2023/01/17 07:06:09;;;;;;;1999.90;999.90;;;;;;;0.41;100.00;92696.38;5067469;28;20155;-67
2023/01/17 07:08:35;;;;;;;1999.90;999.90;;;;;;;0.65;100.00;92686.44;5067798;28;20193;-65
2023/01/17 07:11:03;;;;;;;1999.90;999.90;;;;;;;1.01;100.00;92690.06;5067267;28;20156;-63
2023/01/17 07:13:29;;;;;;;1999.90;999.90;;;;;;;1.61;100.00;92682.47;5067560;28;20167;-62
2023/01/17 07:15:55;;;;;;;1999.90;999.90;;;;;;;2.15;100.00;92691.75;5067777;28;20475;-63
2023/01/17 07:18:22;;;;;;;1999.90;999.90;;;;;;;2.75;100.00;92703.91;5067153;28;20165;-64
2023/01/17 07:20:48;;;;;;;1999.90;999.90;;;;;;;3.40;100.00;92714.25;5067650;28;20204;-66
2023/01/17 07:23:13;;;;;;;1999.90;999.90;;;;;;;4.21;100.00;92724.81;5066992;28;20173;-63
2023/01/17 07:25:39;;;;;;;1999.90;999.90;;;;;;;5.15;100.00;92729.38;5067428;28;20192;-63
2023/01/17 07:28:04;;;;;;;1999.90;999.90;;;;;;;5.64;100.00;92735.88;5067042;28;20158;-63
2023/01/17 07:30:29;;;;;;;1999.90;999.90;;;;;;;5.80;100.00;92738.47;5066722;28;20237;-63
2023/01/17 07:32:55;;;;;;;1999.90;999.90;;;;;;;5.50;100.00;92741.78;5066800;28;20195;-63
2023/01/17 07:35:22;;;;;;;1999.90;999.90;;;;;;;5.28;100.00;92749.06;5067077;28;20244;-64
2023/01/17 07:37:48;;;;;;;1999.90;999.90;;;;;;;5.57;100.00;92749.66;5067454;28;20164;-63
2023/01/17 07:40:16;;;;;;;1999.90;999.90;;;;;;;5.90;100.00;92742.78;5067519;28;20239;-65
2023/01/17 07:42:42;;;;;;;1999.90;999.90;;;;;;;5.91;100.00;92742.31;5067470;28;20181;-64
2023/01/17 07:45:08;;;;;;;1999.90;999.90;;;;;;;5.94;100.00;92735.31;5067082;28;20167;-64
2023/01/17 07:47:34;;;;;;;1999.90;999.90;;;;;;;6.05;100.00;92743.81;5066414;28;20214;-64
2023/01/17 07:50:00;;;;;;;1999.90;999.90;;;;;;;6.30;100.00;92730.16;5067282;28;20274;-64
2023/01/17 07:52:26;;;;;;;1999.90;999.90;;;;;;;6.47;100.00;92731.47;5066791;28;20458;-65
2023/01/17 07:54:51;;;;;;;1999.90;999.90;;;;;;;7.13;100.00;92711.94;5066656;28;20168;-65
2023/01/17 07:57:17;;;;;;;1999.90;999.90;;;;;;;7.53;100.00;92701.78;5066833;28;20160;-65
2023/01/17 07:59:42;;;;;;;1999.90;999.90;;;;;;;7.27;100.00;92702.47;5066917;28;20191;-65
2023/01/17 08:02:16;;;;;;;1999.90;999.90;;;;;;;7.34;100.00;92697.53;5071429;28;20232;-65
2023/01/17 08:04:42;;;;;;;1999.90;999.90;;;;;;;7.27;100.00;92697.03;5071555;28;20183;-65
2023/01/17 08:07:07;;;;;;;1999.90;999.90;;;;;;;7.37;100.00;92693.94;5071292;28;20161;-65
2023/01/17 08:09:33;;;;;;;1999.90;999.90;;;;;;;7.56;100.00;92695.47;5070869;28;20241;-65
2023/01/17 08:11:58;;;;;;;1999.90;999.90;;;;;;;7.40;100.00;92695.75;5071219;28;20242;-65
2023/01/17 08:14:23;;;;;;;1999.90;999.90;;;;;;;7.94;100.00;92695.06;5070771;28;20241;-64
2023/01/17 08:16:49;;;;;;;1999.90;999.90;;;;;;;7.89;100.00;92685.56;5071173;28;20170;-65
2023/01/17 08:19:15;;;;;;;1999.90;999.90;;;;;;;7.27;100.00;92694.31;5070587;28;20190;-63
2023/01/17 08:21:41;;;;;;;1999.90;999.90;;;;;;;6.77;100.00;92695.50;5070551;28;20162;-63
2023/01/17 08:24:13;;;;;;;1999.90;999.90;;;;;;;6.17;100.00;92696.94;5070571;28;20162;-63
2023/01/17 08:26:39;;;;;;;1999.90;999.90;;;;;;;5.68;100.00;92699.38;5071023;28;20451;-65
2023/01/17 08:29:05;;;;;;;1999.90;999.90;;;;;;;4.96;100.00;92692.50;5070329;28;20166;-65
2023/01/17 08:31:33;;;;;;;1999.90;999.90;;;;;;;4.86;100.00;92696.28;5070737;28;20189;-65
2023/01/17 08:33:59;;;;;;;1999.90;999.90;;;;;;;4.85;100.00;92697.47;5070421;28;20163;-65
2023/01/17 08:36:26;;;;;;;1999.90;999.90;;;;;;;4.68;100.00;92696.06;5070252;28;20250;-65
2023/01/17 08:38:52;;;;;;;1999.90;999.90;;;;;;;4.65;100.00;92688.81;5070823;28;20176;-64
2023/01/17 08:41:19;;;;;;;1999.90;999.90;;;;;;;4.51;100.00;92681.16;5070708;28;20199;-64
2023/01/17 08:43:49;;;;;;;1999.90;999.90;;;;;;;4.29;100.00;92683.69;5070277;28;20171;-64
2023/01/17 08:46:15;;;;;;;1999.90;999.90;;;;;;;4.22;100.00;92677.75;5070525;28;20182;-65
2023/01/17 08:48:40;;;;;;;1999.90;999.90;;;;;;;4.17;100.00;92683.66;5070052;28;20218;-64
2023/01/17 08:51:06;;;;;;;1999.90;999.90;;;;;;;4.17;100.00;92686.38;5069741;28;20188;-65
2023/01/17 08:53:31;;;;;;;1999.90;999.90;;;;;;;4.24;100.00;92681.53;5070045;28;20168;-65
2023/01/17 08:56:01;;;;;;;1999.90;999.90;;;;;;;4.56;100.00;92677.91;5070088;28;20166;-66
2023/01/17 08:58:29;;;;;;;1999.90;999.90;;;;;;;4.71;100.00;92676.28;5069950;28;20166;-64
2023/01/17 09:00:58;;;;;;;1999.90;999.90;;;;;;;4.62;100.00;92678.88;5070267;28;20522;-64
2023/01/17 09:03:24;;;;;;;1999.90;999.90;;;;;;;4.59;100.00;92677.03;5070004;28;20166;-63
2023/01/17 09:05:49;;;;;;;1999.90;999.90;;;;;;;5.21;100.00;92681.66;5069967;28;20237;-63
2023/01/17 09:08:14;;;;;;;1999.90;999.90;;;;;;;5.74;100.00;92689.53;5070288;28;20167;-64
2023/01/17 09:10:40;;;;;;;1999.90;999.90;;;;;;;6.68;100.00;92681.91;5069083;28;20167;-65
2023/01/17 09:13:05;;;;;;;1999.90;999.90;;;;;;;7.30;100.00;92688.00;5069472;28;20195;-65
2023/01/17 09:15:31;;;;;;;1999.90;999.90;;;;;;;7.19;100.00;92688.44;5069989;28;20163;-65
2023/01/17 09:17:56;;;;;;;1999.90;999.90;;;;;;;6.82;100.00;92684.09;5070035;28;20200;-65
2023/01/17 09:20:23;;;;;;;1999.90;999.90;;;;;;;6.76;100.00;92688.56;5069408;28;20360;-65
2023/01/17 09:22:49;;;;;;;1999.90;999.90;;;;;;;6.93;100.00;92689.84;5069271;28;20188;-66
2023/01/17 09:25:14;;;;;;;1999.90;999.90;;;;;;;6.95;100.00;92684.72;5069427;28;20162;-66
2023/01/17 09:27:44;;;;;;;1999.90;999.90;;;;;;;6.77;100.00;92679.22;5069587;28;20226;-66
2023/01/17 09:30:09;;;;;;;1999.90;999.90;;;;;;;6.89;100.00;92687.25;5069597;28;20181;-64
2023/01/17 09:32:35;;;;;;;1999.90;999.90;;;;;;;7.50;100.00;92675.53;5069106;28;20185;-64
2023/01/17 09:35:02;;;;;;;1999.90;999.90;;;;;;;7.85;100.00;92673.31;5069175;28;20157;-65
2023/01/17 09:37:27;;;;;;;1999.90;999.90;;;;;;;8.28;100.00;92667.59;5069106;28;20158;-65
2023/01/17 09:39:52;;;;;;;1999.90;999.90;;;;;;;7.73;99.94;92655.97;5069097;28;20169;-64
2023/01/17 09:42:31;;;;;;;1999.90;999.90;;;;;;;7.46;100.00;92655.19;5069080;28;20248;-65
2023/01/17 09:44:57;;;;;;;1999.90;999.90;;;;;;;7.71;100.00;92652.94;5069805;28;20158;-64
2023/01/17 09:47:43;;;;;;;1999.90;999.90;;;;;;;7.86;100.00;92653.84;5069434;28;20368;-64
2023/01/17 09:50:14;;;;;;;1999.90;999.90;;;;;;;8.18;100.00;92647.03;5069421;28;20177;-65
2023/01/17 09:52:40;;;;;;;1999.90;999.90;;;;;;;8.75;97.61;92637.88;5068779;28;20288;-64
2023/01/17 09:55:06;;;;;;;1999.90;999.90;;;;;;;9.17;91.54;92639.38;5068954;28;20170;-65
2023/01/17 09:57:39;;;;;;;1999.90;999.90;;;;;;;9.26;88.59;92636.59;5068825;28;20166;-66
2023/01/17 10:00:24;;;;;;;1999.90;999.90;;;;;;;9.61;86.53;92623.97;5069329;28;20189;-65
2023/01/17 10:02:59;;;;;;;1999.90;999.90;;;;;;;9.43;85.50;92612.44;5069305;28;20351;-65
2023/01/17 10:05:44;;;;;;;1999.90;999.90;;;;;;;9.64;81.63;92601.25;5069140;28;20444;-65
2023/01/17 10:08:41;;;;;;;1999.90;999.90;;;;;;;9.46;82.77;92592.44;5069248;28;20193;-65
2023/01/17 10:11:25;;;;;;;1999.90;999.90;;;;;;;8.78;80.92;92586.00;5068985;28;20165;-65
2023/01/17 10:14:23;;;;;;;1999.90;999.90;;;;;;;8.56;81.73;92585.50;5068405;28;20173;-58
2023/01/17 10:17:09;;;;;;;1999.90;999.90;;;;;;;8.42;79.00;92586.16;5068672;28;20169;-65
2023/01/17 10:19:59;;;;;;;1999.90;999.90;;;;;;;7.57;86.64;92576.75;5068794;28;20201;-63
2023/01/17 10:23:04;;;;;;;1999.90;999.90;;;;;;;7.38;86.60;92569.78;5068370;28;20179;-64
2023/01/17 10:25:54;;;;;;;1999.90;999.90;;;;;;;6.98;85.10;92564.47;5068256;28;20169;-64
2023/01/17 10:28:45;;;;;;;1999.90;999.90;;;;;;;7.20;84.32;92569.78;5068098;28;20173;-64
2023/01/17 10:31:19;;;;;;;1999.90;999.90;;;;;;;7.00;85.25;92564.81;5068381;28;20485;-64
2023/01/17 10:33:55;;;;;;;1999.90;999.90;;;;;;;7.84;82.39;92574.78;5068463;28;20165;-65
2023/01/17 10:36:23;;;;;;;1999.90;999.90;;;;;;;7.58;81.57;92560.00;5068392;28;20245;-64
2023/01/17 10:38:55;;;;;;;1999.90;999.90;;;;;;;8.09;79.59;92563.56;5067980;28;20541;-65
2023/01/17 10:41:27;;;;;;;1999.90;999.90;;;;;;;7.79;79.22;92569.94;5068494;28;20215;-65
2023/01/17 10:43:58;;;;;;;1999.90;999.90;;;;;;;8.09;80.28;92562.81;5068523;28;20162;-64
2023/01/17 10:46:37;;;;;;;1999.90;999.90;;;;;;;6.85;79.92;92555.72;5068002;28;20188;-64
2023/01/17 10:49:02;;;;;;;1999.90;999.90;;;;;;;6.47;85.65;92553.34;5068297;28;20220;-65
2023/01/17 10:51:42;;;;;;;1999.90;999.90;;;;;;;6.12;89.98;92548.56;5067548;28;20204;-65
2023/01/17 10:54:32;;;;;;;1999.90;999.90;;;;;;;5.92;92.74;92545.41;5068473;28;20228;-65
2023/01/17 10:56:58;;;;;;;1999.90;999.90;;;;;;;5.54;95.36;92545.59;5068280;28;20169;-64
2023/01/17 10:59:30;;;;;;;1999.90;999.90;;;;;;;5.25;96.51;92541.66;5067740;28;20195;-64
2023/01/17 11:01:56;;;;;;;1999.90;999.90;;;;;;;5.08;97.51;92538.34;5067528;28;20179;-64
2023/01/17 11:04:28;;;;;;;1999.90;999.90;;;;;;;4.85;98.76;92535.28;5067165;28;20194;-65
2023/01/17 11:07:16;;;;;;;1999.90;999.90;;;;;;;4.79;100.00;92526.22;5068006;28;20176;-63
2023/01/17 11:09:48;;;;;;;1999.90;999.90;;;;;;;4.80;100.00;92516.91;5067453;28;20224;-64
2023/01/17 11:12:35;;;;;;;1999.90;999.90;;;;;;;4.85;100.00;92509.00;5067730;28;20198;-63
2023/01/17 11:15:03;;;;;;;1999.90;999.90;;;;;;;4.65;100.00;92510.47;5067414;28;20246;-65
2023/01/17 11:17:30;;;;;;;1999.90;999.90;;;;;;;4.75;100.00;92504.72;5066967;28;20182;-64
2023/01/17 11:20:15;;;;;;;1999.90;999.90;;;;;;;4.88;100.00;92491.16;5066831;28;20203;-64
2023/01/17 11:22:47;;;;;;;1999.90;999.90;;;;;;;4.60;100.00;92492.88;5067616;28;20238;-68
2023/01/17 11:25:21;;;;;;;1999.90;999.90;;;;;;;4.29;100.00;92485.81;5067472;28;20164;-66
2023/01/17 11:27:59;;;;;;;1999.90;999.90;;;;;;;4.83;100.00;92494.41;5067268;28;20202;-68
2023/01/17 11:30:28;;;;;;;1999.90;999.90;;;;;;;4.91;100.00;92491.03;5066812;28;20199;-67
2023/01/17 11:33:05;;;;;;;1999.90;999.90;;;;;;;4.71;100.00;92481.69;5067088;28;20198;-67
2023/01/17 11:35:33;;;;;;;1999.90;999.90;;;;;;;4.53;100.00;92474.19;5067362;28;20197;-66
2023/01/17 11:38:01;;;;;;;1999.90;999.90;;;;;;;4.63;100.00;92488.53;5067223;28;20174;-64
2023/01/17 11:40:48;;;;;;;1999.90;999.90;;;;;;;4.75;100.00;92485.03;5066984;28;20179;-63
2023/01/17 11:43:26;;;;;;;1999.90;999.90;;;;;;;4.64;100.00;92481.94;5067857;28;20177;-65
2023/01/17 11:46:05;;;;;;;1999.90;999.90;;;;;;;4.74;100.00;92488.94;5067318;28;20209;-65
2023/01/17 11:48:36;;;;;;;1999.90;999.90;;;;;;;4.63;100.00;92485.84;5067075;28;20586;-65
2023/01/17 11:51:03;;;;;;;1999.90;999.90;;;;;;;4.70;100.00;92475.53;5067573;28;20193;-65
2023/01/17 11:53:39;;;;;;;1999.90;999.90;;;;;;;4.49;100.00;92478.19;5066622;28;20223;-65
2023/01/17 11:56:08;;;;;;;1999.90;999.90;;;;;;;4.82;100.00;92465.88;5066948;28;20169;-65
2023/01/17 11:58:38;;;;;;;1999.90;999.90;;;;;;;4.41;100.00;92463.41;5066841;28;20530;-66
2023/01/17 12:01:12;;;;;;;1999.90;999.90;;;;;;;4.31;100.00;92453.72;5066893;28;20245;-65
2023/01/17 12:04:01;;;;;;;1999.90;999.90;;;;;;;4.56;100.00;92453.66;5067531;28;20165;-66
2023/01/17 12:06:46;;;;;;;1999.90;999.90;;;;;;;4.56;100.00;92442.84;5067457;28;20166;-65
2023/01/17 12:09:38;;;;;;;1999.90;999.90;;;;;;;4.71;100.00;92433.06;5067285;28;20170;-66
2023/01/17 12:15:49;;;;;;;1999.90;999.90;;;;;;;4.44;100.00;92430.88;5084314;28;20235;-66
2023/01/17 12:18:32;;;;;;;1999.90;999.90;;;;;;;4.53;100.00;92427.50;5030057;28;20177;-66
2023/01/17 12:21:20;;;;;;;1999.90;999.90;;;;;;;4.53;100.00;92419.41;5066774;28;20190;-65
2023/01/17 12:24:13;;;;;;;1999.90;999.90;;;;;;;4.58;100.00;92408.03;5067213;28;20164;-66
2023/01/17 12:26:50;;;;;;;1999.90;999.90;;;;;;;4.42;100.00;92402.78;5067334;28;20200;-65
2023/01/17 12:29:33;;;;;;;1999.90;999.90;;;;;;;4.43;100.00;92386.16;5066835;28;20185;-66
2023/01/17 12:32:01;;;;;;;1999.90;999.90;;;;;;;4.52;100.00;92388.91;5066606;28;20250;-65